sensor_id;sensor_type;location;lat;lon;timestamp;P1;durP1;ratioP1;P2;durP2;ratioP2
54328;SDS011;40710;51.120;13.136;2022-12-18T00:00:23;56.04;;;53.16;;
54328;SDS011;40710;51.120;13.136;2022-12-18T00:02:48;55.60;;;52.80;;
54328;SDS011;40710;51.120;13.136;2022-12-18T00:05:12;56.37;;;53.11;;
54328;SDS011;40710;51.120;13.136;2022-12-18T00:07:37;55.14;;;52.47;;
54328;SDS011;40710;51.120;13.136;2022-12-18T00:10:02;54.91;;;52.33;;
54328;SDS011;40710;51.120;13.136;2022-12-18T00:12:27;56.15;;;53.20;;
54328;SDS011;40710;51.120;13.136;2022-12-18T00:14:51;56.01;;;53.09;;
54328;SDS011;40710;51.120;13.136;2022-12-18T00:17:16;55.18;;;52.05;;
54328;SDS011;40710;51.120;13.136;2022-12-18T00:19:40;54.83;;;52.07;;
54328;SDS011;40710;51.120;13.136;2022-12-18T00:22:05;56.21;;;53.12;;
54328;SDS011;40710;51.120;13.136;2022-12-18T00:24:30;56.60;;;53.40;;
54328;SDS011;40710;51.120;13.136;2022-12-18T00:26:55;55.77;;;52.83;;
54328;SDS011;40710;51.120;13.136;2022-12-18T00:29:19;56.47;;;53.23;;
54328;SDS011;40710;51.120;13.136;2022-12-18T00:31:44;56.07;;;53.07;;
54328;SDS011;40710;51.120;13.136;2022-12-18T00:34:09;55.27;;;52.47;;
54328;SDS011;40710;51.120;13.136;2022-12-18T00:36:35;54.82;;;52.24;;
54328;SDS011;40710;51.120;13.136;2022-12-18T00:39:01;54.98;;;52.10;;
54328;SDS011;40710;51.120;13.136;2022-12-18T00:41:27;54.66;;;51.92;;
54328;SDS011;40710;51.120;13.136;2022-12-18T00:44:11;54.23;;;51.37;;
54328;SDS011;40710;51.120;13.136;2022-12-18T00:46:38;52.47;;;50.52;;
54328;SDS011;40710;51.120;13.136;2022-12-18T00:49:03;53.75;;;51.02;;
54328;SDS011;40710;51.120;13.136;2022-12-18T00:51:28;54.31;;;51.30;;
54328;SDS011;40710;51.120;13.136;2022-12-18T00:53:53;52.86;;;50.52;;
54328;SDS011;40710;51.120;13.136;2022-12-18T00:56:17;53.41;;;50.83;;
54328;SDS011;40710;51.120;13.136;2022-12-18T00:58:42;53.16;;;51.03;;
54328;SDS011;40710;51.120;13.136;2022-12-18T01:01:07;53.16;;;50.61;;
54328;SDS011;40710;51.120;13.136;2022-12-18T01:03:32;51.94;;;49.59;;
54328;SDS011;40710;51.120;13.136;2022-12-18T01:05:57;51.76;;;49.14;;
54328;SDS011;40710;51.120;13.136;2022-12-18T01:08:22;52.50;;;49.77;;
54328;SDS011;40710;51.120;13.136;2022-12-18T01:10:46;53.35;;;49.92;;
54328;SDS011;40710;51.120;13.136;2022-12-18T01:13:11;52.19;;;49.65;;
54328;SDS011;40710;51.120;13.136;2022-12-18T01:15:35;54.64;;;51.97;;
54328;SDS011;40710;51.120;13.136;2022-12-18T01:18:00;54.28;;;51.51;;
54328;SDS011;40710;51.120;13.136;2022-12-18T01:20:24;55.77;;;52.53;;
54328;SDS011;40710;51.120;13.136;2022-12-18T01:22:49;54.01;;;51.41;;
54328;SDS011;40710;51.120;13.136;2022-12-18T01:25:14;54.07;;;51.65;;
54328;SDS011;40710;51.120;13.136;2022-12-18T01:27:38;55.68;;;52.08;;
54328;SDS011;40710;51.120;13.136;2022-12-18T01:30:03;52.86;;;50.18;;
54328;SDS011;40710;51.120;13.136;2022-12-18T01:32:29;52.03;;;49.20;;
54328;SDS011;40710;51.120;13.136;2022-12-18T01:34:55;50.98;;;48.23;;
54328;SDS011;40710;51.120;13.136;2022-12-18T01:37:19;49.93;;;47.56;;
54328;SDS011;40710;51.120;13.136;2022-12-18T01:39:44;50.88;;;48.02;;
54328;SDS011;40710;51.120;13.136;2022-12-18T01:42:12;50.63;;;48.10;;
54328;SDS011;40710;51.120;13.136;2022-12-18T01:44:56;49.71;;;47.25;;
54328;SDS011;40710;51.120;13.136;2022-12-18T01:47:34;49.52;;;46.96;;
54328;SDS011;40710;51.120;13.136;2022-12-18T01:50:21;51.01;;;47.77;;
54328;SDS011;40710;51.120;13.136;2022-12-18T01:52:58;49.44;;;46.83;;
54328;SDS011;40710;51.120;13.136;2022-12-18T01:55:40;48.19;;;46.24;;
54328;SDS011;40710;51.120;13.136;2022-12-18T01:58:09;48.69;;;46.33;;
54328;SDS011;40710;51.120;13.136;2022-12-18T02:00:34;49.92;;;47.05;;
54328;SDS011;40710;51.120;13.136;2022-12-18T02:02:59;48.18;;;45.81;;
54328;SDS011;40710;51.120;13.136;2022-12-18T02:10:36;45.94;;;43.89;;
54328;SDS011;40710;51.120;13.136;2022-12-18T02:15:59;48.80;;;45.95;;
54328;SDS011;40710;51.120;13.136;2022-12-18T02:18:36;48.11;;;45.67;;
54328;SDS011;40710;51.120;13.136;2022-12-18T02:24:30;47.13;;;44.74;;
54328;SDS011;40710;51.120;13.136;2022-12-18T02:27:08;46.17;;;43.88;;
54328;SDS011;40710;51.120;13.136;2022-12-18T02:29:37;45.76;;;43.85;;
54328;SDS011;40710;51.120;13.136;2022-12-18T02:32:09;47.32;;;44.76;;
54328;SDS011;40710;51.120;13.136;2022-12-18T02:34:41;45.71;;;43.10;;
54328;SDS011;40710;51.120;13.136;2022-12-18T02:37:09;43.60;;;41.64;;
54328;SDS011;40710;51.120;13.136;2022-12-18T02:39:40;44.91;;;42.59;;
54328;SDS011;40710;51.120;13.136;2022-12-18T02:42:08;44.86;;;42.55;;
54328;SDS011;40710;51.120;13.136;2022-12-18T02:44:35;44.92;;;42.70;;
54328;SDS011;40710;51.120;13.136;2022-12-18T02:47:11;45.84;;;43.73;;
54328;SDS011;40710;51.120;13.136;2022-12-18T02:55:49;45.15;;;42.88;;
54328;SDS011;40710;51.120;13.136;2022-12-18T03:04:26;44.23;;;42.07;;
54328;SDS011;40710;51.120;13.136;2022-12-18T03:06:57;44.68;;;42.30;;
54328;SDS011;40710;51.120;13.136;2022-12-18T03:09:46;44.62;;;42.27;;
54328;SDS011;40710;51.120;13.136;2022-12-18T03:12:30;43.89;;;41.67;;
54328;SDS011;40710;51.120;13.136;2022-12-18T03:17:33;42.92;;;41.03;;
54328;SDS011;40710;51.120;13.136;2022-12-18T03:20:00;43.65;;;41.45;;
54328;SDS011;40710;51.120;13.136;2022-12-18T03:22:30;42.89;;;40.60;;
54328;SDS011;40710;51.120;13.136;2022-12-18T03:24:58;43.73;;;41.28;;
54328;SDS011;40710;51.120;13.136;2022-12-18T03:27:26;43.62;;;41.22;;
54328;SDS011;40710;51.120;13.136;2022-12-18T03:30:04;44.01;;;41.57;;
54328;SDS011;40710;51.120;13.136;2022-12-18T03:32:33;42.23;;;40.20;;
54328;SDS011;40710;51.120;13.136;2022-12-18T03:35:26;40.66;;;38.92;;
54328;SDS011;40710;51.120;13.136;2022-12-18T03:37:56;42.22;;;40.13;;
54328;SDS011;40710;51.120;13.136;2022-12-18T03:40:21;40.54;;;38.81;;
54328;SDS011;40710;51.120;13.136;2022-12-18T03:42:59;41.28;;;39.33;;
54328;SDS011;40710;51.120;13.136;2022-12-18T03:45:46;41.18;;;39.10;;
54328;SDS011;40710;51.120;13.136;2022-12-18T03:48:31;41.05;;;38.72;;
54328;SDS011;40710;51.120;13.136;2022-12-18T03:51:13;40.13;;;38.31;;
54328;SDS011;40710;51.120;13.136;2022-12-18T03:53:52;39.83;;;37.47;;
54328;SDS011;40710;51.120;13.136;2022-12-18T03:56:24;38.59;;;36.98;;
54328;SDS011;40710;51.120;13.136;2022-12-18T03:58:53;38.33;;;36.43;;
54328;SDS011;40710;51.120;13.136;2022-12-18T04:01:25;38.68;;;36.46;;
54328;SDS011;40710;51.120;13.136;2022-12-18T04:03:56;38.46;;;36.41;;
54328;SDS011;40710;51.120;13.136;2022-12-18T04:06:25;38.68;;;36.56;;
54328;SDS011;40710;51.120;13.136;2022-12-18T04:08:52;38.83;;;36.72;;
54328;SDS011;40710;51.120;13.136;2022-12-18T04:11:17;38.72;;;36.83;;
54328;SDS011;40710;51.120;13.136;2022-12-18T04:13:42;38.44;;;36.65;;
54328;SDS011;40710;51.120;13.136;2022-12-18T04:16:07;38.79;;;37.02;;
54328;SDS011;40710;51.120;13.136;2022-12-18T04:18:33;38.05;;;36.04;;
54328;SDS011;40710;51.120;13.136;2022-12-18T04:20:58;37.39;;;35.82;;
54328;SDS011;40710;51.120;13.136;2022-12-18T04:23:22;38.42;;;36.31;;
54328;SDS011;40710;51.120;13.136;2022-12-18T04:25:47;38.17;;;36.29;;
54328;SDS011;40710;51.120;13.136;2022-12-18T04:28:12;38.42;;;36.63;;
54328;SDS011;40710;51.120;13.136;2022-12-18T04:30:36;37.87;;;36.03;;
54328;SDS011;40710;51.120;13.136;2022-12-18T04:33:01;38.56;;;36.53;;
54328;SDS011;40710;51.120;13.136;2022-12-18T04:35:26;37.40;;;35.77;;
54328;SDS011;40710;51.120;13.136;2022-12-18T04:37:50;36.45;;;34.46;;
54328;SDS011;40710;51.120;13.136;2022-12-18T04:40:15;37.15;;;34.97;;
54328;SDS011;40710;51.120;13.136;2022-12-18T04:42:40;37.30;;;35.37;;
54328;SDS011;40710;51.120;13.136;2022-12-18T04:45:05;37.29;;;35.25;;
54328;SDS011;40710;51.120;13.136;2022-12-18T04:47:30;36.94;;;35.08;;
54328;SDS011;40710;51.120;13.136;2022-12-18T04:49:55;36.05;;;34.09;;
54328;SDS011;40710;51.120;13.136;2022-12-18T04:52:19;35.56;;;33.74;;
54328;SDS011;40710;51.120;13.136;2022-12-18T04:54:44;36.36;;;34.47;;
54328;SDS011;40710;51.120;13.136;2022-12-18T04:57:08;36.95;;;35.04;;
54328;SDS011;40710;51.120;13.136;2022-12-18T04:59:33;36.79;;;34.63;;
54328;SDS011;40710;51.120;13.136;2022-12-18T05:01:58;36.43;;;34.62;;
54328;SDS011;40710;51.120;13.136;2022-12-18T05:04:22;35.82;;;33.99;;
54328;SDS011;40710;51.120;13.136;2022-12-18T05:06:47;36.21;;;34.18;;
54328;SDS011;40710;51.120;13.136;2022-12-18T05:09:11;35.78;;;33.76;;
54328;SDS011;40710;51.120;13.136;2022-12-18T05:11:36;34.82;;;33.04;;
54328;SDS011;40710;51.120;13.136;2022-12-18T05:14:00;34.97;;;33.03;;
54328;SDS011;40710;51.120;13.136;2022-12-18T05:16:25;34.77;;;32.76;;
54328;SDS011;40710;51.120;13.136;2022-12-18T05:18:50;34.01;;;32.23;;
54328;SDS011;40710;51.120;13.136;2022-12-18T05:21:14;33.87;;;32.20;;
54328;SDS011;40710;51.120;13.136;2022-12-18T05:23:39;35.27;;;33.34;;
54328;SDS011;40710;51.120;13.136;2022-12-18T05:26:04;33.27;;;31.32;;
54328;SDS011;40710;51.120;13.136;2022-12-18T05:28:31;33.83;;;32.02;;
54328;SDS011;40710;51.120;13.136;2022-12-18T05:30:58;33.60;;;31.99;;
54328;SDS011;40710;51.120;13.136;2022-12-18T05:33:26;33.58;;;31.78;;
54328;SDS011;40710;51.120;13.136;2022-12-18T05:35:55;32.31;;;30.89;;
54328;SDS011;40710;51.120;13.136;2022-12-18T05:38:23;33.50;;;31.46;;
54328;SDS011;40710;51.120;13.136;2022-12-18T05:40:50;34.39;;;31.79;;
54328;SDS011;40710;51.120;13.136;2022-12-18T05:43:16;33.49;;;31.63;;
54328;SDS011;40710;51.120;13.136;2022-12-18T05:45:42;32.64;;;31.09;;
54328;SDS011;40710;51.120;13.136;2022-12-18T05:48:07;32.28;;;30.89;;
54328;SDS011;40710;51.120;13.136;2022-12-18T05:50:39;32.42;;;30.66;;
54328;SDS011;40710;51.120;13.136;2022-12-18T05:53:06;31.88;;;30.30;;
54328;SDS011;40710;51.120;13.136;2022-12-18T05:55:34;32.59;;;30.54;;
54328;SDS011;40710;51.120;13.136;2022-12-18T05:58:01;30.99;;;29.50;;
54328;SDS011;40710;51.120;13.136;2022-12-18T06:00:27;31.31;;;29.48;;
54328;SDS011;40710;51.120;13.136;2022-12-18T06:02:52;32.58;;;30.52;;
54328;SDS011;40710;51.120;13.136;2022-12-18T06:05:16;31.91;;;30.37;;
54328;SDS011;40710;51.120;13.136;2022-12-18T06:07:41;32.42;;;30.35;;
54328;SDS011;40710;51.120;13.136;2022-12-18T06:10:06;31.01;;;29.32;;
54328;SDS011;40710;51.120;13.136;2022-12-18T06:12:31;30.59;;;29.00;;
54328;SDS011;40710;51.120;13.136;2022-12-18T06:14:57;29.85;;;28.60;;
54328;SDS011;40710;51.120;13.136;2022-12-18T06:17:22;30.09;;;28.85;;
54328;SDS011;40710;51.120;13.136;2022-12-18T06:19:46;29.65;;;28.17;;
54328;SDS011;40710;51.120;13.136;2022-12-18T06:22:11;28.27;;;27.13;;
54328;SDS011;40710;51.120;13.136;2022-12-18T06:24:35;28.41;;;27.17;;
54328;SDS011;40710;51.120;13.136;2022-12-18T06:27:00;28.05;;;26.74;;
54328;SDS011;40710;51.120;13.136;2022-12-18T06:29:25;28.83;;;27.40;;
54328;SDS011;40710;51.120;13.136;2022-12-18T06:31:49;30.74;;;28.98;;
54328;SDS011;40710;51.120;13.136;2022-12-18T06:34:14;29.01;;;27.56;;
54328;SDS011;40710;51.120;13.136;2022-12-18T06:36:38;28.72;;;27.20;;
54328;SDS011;40710;51.120;13.136;2022-12-18T06:39:03;28.78;;;27.12;;
54328;SDS011;40710;51.120;13.136;2022-12-18T06:41:27;27.11;;;25.94;;
54328;SDS011;40710;51.120;13.136;2022-12-18T06:43:52;26.55;;;25.11;;
54328;SDS011;40710;51.120;13.136;2022-12-18T06:46:17;26.45;;;24.99;;
54328;SDS011;40710;51.120;13.136;2022-12-18T06:48:42;25.57;;;24.28;;
54328;SDS011;40710;51.120;13.136;2022-12-18T06:51:06;26.07;;;24.96;;
54328;SDS011;40710;51.120;13.136;2022-12-18T06:53:31;25.81;;;24.50;;
54328;SDS011;40710;51.120;13.136;2022-12-18T06:56:00;25.37;;;24.18;;
54328;SDS011;40710;51.120;13.136;2022-12-18T06:58:26;25.29;;;24.24;;
54328;SDS011;40710;51.120;13.136;2022-12-18T07:00:51;27.21;;;26.10;;
54328;SDS011;40710;51.120;13.136;2022-12-18T07:03:16;26.34;;;25.11;;
54328;SDS011;40710;51.120;13.136;2022-12-18T07:05:40;26.95;;;25.73;;
54328;SDS011;40710;51.120;13.136;2022-12-18T07:08:05;26.07;;;24.59;;
54328;SDS011;40710;51.120;13.136;2022-12-18T07:10:30;25.38;;;24.27;;
54328;SDS011;40710;51.120;13.136;2022-12-18T07:12:55;25.68;;;24.54;;
54328;SDS011;40710;51.120;13.136;2022-12-18T07:15:20;25.53;;;24.42;;
54328;SDS011;40710;51.120;13.136;2022-12-18T07:17:44;25.32;;;24.29;;
54328;SDS011;40710;51.120;13.136;2022-12-18T07:20:09;25.60;;;24.51;;
54328;SDS011;40710;51.120;13.136;2022-12-18T07:22:34;25.95;;;24.90;;
54328;SDS011;40710;51.120;13.136;2022-12-18T07:24:58;26.04;;;24.85;;
54328;SDS011;40710;51.120;13.136;2022-12-18T07:27:23;26.01;;;24.87;;
54328;SDS011;40710;51.120;13.136;2022-12-18T07:29:47;26.39;;;25.41;;
54328;SDS011;40710;51.120;13.136;2022-12-18T07:32:12;26.11;;;24.86;;
54328;SDS011;40710;51.120;13.136;2022-12-18T07:34:37;26.72;;;25.47;;
54328;SDS011;40710;51.120;13.136;2022-12-18T07:37:01;26.39;;;25.14;;
54328;SDS011;40710;51.120;13.136;2022-12-18T07:39:26;28.58;;;27.26;;
54328;SDS011;40710;51.120;13.136;2022-12-18T07:41:51;29.65;;;28.39;;
54328;SDS011;40710;51.120;13.136;2022-12-18T07:44:34;30.42;;;29.24;;
54328;SDS011;40710;51.120;13.136;2022-12-18T07:46:59;29.80;;;28.42;;
54328;SDS011;40710;51.120;13.136;2022-12-18T07:49:23;29.59;;;28.37;;
54328;SDS011;40710;51.120;13.136;2022-12-18T07:51:48;29.26;;;27.79;;
54328;SDS011;40710;51.120;13.136;2022-12-18T07:54:13;27.83;;;26.64;;
54328;SDS011;40710;51.120;13.136;2022-12-18T07:56:37;26.44;;;25.41;;
54328;SDS011;40710;51.120;13.136;2022-12-18T07:59:02;26.11;;;24.99;;
54328;SDS011;40710;51.120;13.136;2022-12-18T08:01:27;25.57;;;24.55;;
54328;SDS011;40710;51.120;13.136;2022-12-18T08:03:51;26.64;;;25.62;;
54328;SDS011;40710;51.120;13.136;2022-12-18T08:06:16;28.43;;;27.59;;
54328;SDS011;40710;51.120;13.136;2022-12-18T08:08:41;29.97;;;28.93;;
54328;SDS011;40710;51.120;13.136;2022-12-18T08:11:06;29.92;;;28.93;;
54328;SDS011;40710;51.120;13.136;2022-12-18T08:13:31;29.82;;;28.59;;
54328;SDS011;40710;51.120;13.136;2022-12-18T08:16:03;29.26;;;28.13;;
54328;SDS011;40710;51.120;13.136;2022-12-18T08:18:31;28.07;;;27.23;;
54328;SDS011;40710;51.120;13.136;2022-12-18T08:20:57;26.85;;;25.94;;
54328;SDS011;40710;51.120;13.136;2022-12-18T08:23:22;27.31;;;26.42;;
54328;SDS011;40710;51.120;13.136;2022-12-18T08:25:46;26.77;;;25.78;;
54328;SDS011;40710;51.120;13.136;2022-12-18T08:28:11;26.02;;;25.21;;
54328;SDS011;40710;51.120;13.136;2022-12-18T08:30:35;25.61;;;24.79;;
54328;SDS011;40710;51.120;13.136;2022-12-18T08:33:00;26.52;;;25.55;;
54328;SDS011;40710;51.120;13.136;2022-12-18T08:35:25;26.96;;;25.93;;
54328;SDS011;40710;51.120;13.136;2022-12-18T08:37:49;27.43;;;26.27;;
54328;SDS011;40710;51.120;13.136;2022-12-18T08:40:14;26.74;;;25.72;;
54328;SDS011;40710;51.120;13.136;2022-12-18T08:42:38;28.15;;;27.41;;
54328;SDS011;40710;51.120;13.136;2022-12-18T08:45:41;35.71;;;33.92;;
54328;SDS011;40710;51.120;13.136;2022-12-18T08:48:06;44.05;;;40.50;;
54328;SDS011;40710;51.120;13.136;2022-12-18T08:50:30;43.50;;;39.88;;
54328;SDS011;40710;51.120;13.136;2022-12-18T08:52:55;47.07;;;42.30;;
54328;SDS011;40710;51.120;13.136;2022-12-18T08:55:19;48.14;;;43.62;;
54328;SDS011;40710;51.120;13.136;2022-12-18T08:57:47;42.60;;;39.19;;
54328;SDS011;40710;51.120;13.136;2022-12-18T09:00:13;35.70;;;33.39;;
54328;SDS011;40710;51.120;13.136;2022-12-18T09:02:38;28.01;;;26.90;;
54328;SDS011;40710;51.120;13.136;2022-12-18T09:05:03;26.91;;;25.94;;
54328;SDS011;40710;51.120;13.136;2022-12-18T09:07:27;27.08;;;26.36;;
54328;SDS011;40710;51.120;13.136;2022-12-18T09:09:52;28.96;;;27.97;;
54328;SDS011;40710;51.120;13.136;2022-12-18T09:12:17;46.22;;;43.83;;
54328;SDS011;40710;51.120;13.136;2022-12-18T09:14:41;56.28;;;53.78;;
54328;SDS011;40710;51.120;13.136;2022-12-18T09:17:06;107.03;;;98.10;;
54328;SDS011;40710;51.120;13.136;2022-12-18T09:19:30;48.57;;;44.96;;
54328;SDS011;40710;51.120;13.136;2022-12-18T09:21:55;32.70;;;31.40;;
54328;SDS011;40710;51.120;13.136;2022-12-18T09:24:20;30.12;;;29.33;;
54328;SDS011;40710;51.120;13.136;2022-12-18T09:26:44;30.40;;;29.68;;
54328;SDS011;40710;51.120;13.136;2022-12-18T09:29:09;30.94;;;30.28;;
54328;SDS011;40710;51.120;13.136;2022-12-18T09:31:34;29.80;;;29.07;;
54328;SDS011;40710;51.120;13.136;2022-12-18T09:33:59;30.19;;;29.52;;
54328;SDS011;40710;51.120;13.136;2022-12-18T09:36:24;35.56;;;34.95;;
54328;SDS011;40710;51.120;13.136;2022-12-18T09:38:48;35.03;;;34.20;;
54328;SDS011;40710;51.120;13.136;2022-12-18T09:41:17;34.13;;;33.21;;
54328;SDS011;40710;51.120;13.136;2022-12-18T09:44:03;42.78;;;41.45;;
54328;SDS011;40710;51.120;13.136;2022-12-18T09:46:35;46.15;;;44.60;;
54328;SDS011;40710;51.120;13.136;2022-12-18T09:49:09;40.81;;;39.86;;
54328;SDS011;40710;51.120;13.136;2022-12-18T09:51:44;37.75;;;36.86;;
54328;SDS011;40710;51.120;13.136;2022-12-18T09:54:19;34.01;;;33.20;;
54328;SDS011;40710;51.120;13.136;2022-12-18T09:56:49;33.42;;;32.44;;
54328;SDS011;40710;51.120;13.136;2022-12-18T09:59:22;32.84;;;32.08;;
54328;SDS011;40710;51.120;13.136;2022-12-18T10:01:51;33.84;;;33.00;;
54328;SDS011;40710;51.120;13.136;2022-12-18T10:04:15;34.47;;;33.67;;
54328;SDS011;40710;51.120;13.136;2022-12-18T10:06:54;35.56;;;34.61;;
54328;SDS011;40710;51.120;13.136;2022-12-18T10:09:42;37.79;;;36.83;;
54328;SDS011;40710;51.120;13.136;2022-12-18T10:12:26;39.47;;;38.56;;
54328;SDS011;40710;51.120;13.136;2022-12-18T10:22:40;37.08;;;36.29;;
54328;SDS011;40710;51.120;13.136;2022-12-18T10:25:17;36.18;;;35.16;;
54328;SDS011;40710;51.120;13.136;2022-12-18T10:27:57;34.06;;;33.03;;
54328;SDS011;40710;51.120;13.136;2022-12-18T10:30:32;32.36;;;31.61;;
54328;SDS011;40710;51.120;13.136;2022-12-18T10:33:00;31.02;;;30.17;;
54328;SDS011;40710;51.120;13.136;2022-12-18T10:35:26;30.13;;;29.31;;
54328;SDS011;40710;51.120;13.136;2022-12-18T10:40:29;31.38;;;30.47;;
54328;SDS011;40710;51.120;13.136;2022-12-18T10:45:29;33.00;;;31.89;;
54328;SDS011;40710;51.120;13.136;2022-12-18T10:47:54;33.42;;;32.53;;
54328;SDS011;40710;51.120;13.136;2022-12-18T10:50:39;33.24;;;32.59;;
54328;SDS011;40710;51.120;13.136;2022-12-18T10:53:03;32.32;;;31.67;;
54328;SDS011;40710;51.120;13.136;2022-12-18T10:55:33;31.81;;;31.13;;
54328;SDS011;40710;51.120;13.136;2022-12-18T11:03:42;31.53;;;30.77;;
54328;SDS011;40710;51.120;13.136;2022-12-18T11:06:23;31.86;;;31.19;;
54328;SDS011;40710;51.120;13.136;2022-12-18T11:11:31;29.39;;;28.48;;
54328;SDS011;40710;51.120;13.136;2022-12-18T11:13:58;26.79;;;26.14;;
54328;SDS011;40710;51.120;13.136;2022-12-18T11:16:33;26.33;;;25.70;;
54328;SDS011;40710;51.120;13.136;2022-12-18T11:22:19;27.00;;;26.54;;
54328;SDS011;40710;51.120;13.136;2022-12-18T11:24:52;28.73;;;27.94;;
54328;SDS011;40710;51.120;13.136;2022-12-18T11:27:20;28.97;;;28.24;;
54328;SDS011;40710;51.120;13.136;2022-12-18T11:29:45;33.15;;;31.81;;
54328;SDS011;40710;51.120;13.136;2022-12-18T11:35:00;33.19;;;32.28;;
54328;SDS011;40710;51.120;13.136;2022-12-18T11:37:27;32.66;;;32.00;;
54328;SDS011;40710;51.120;13.136;2022-12-18T11:39:58;33.34;;;32.15;;
54328;SDS011;40710;51.120;13.136;2022-12-18T11:45:25;32.90;;;31.93;;
54328;SDS011;40710;51.120;13.136;2022-12-18T11:50:55;32.77;;;31.49;;
54328;SDS011;40710;51.120;13.136;2022-12-18T11:53:22;31.24;;;30.30;;
54328;SDS011;40710;51.120;13.136;2022-12-18T12:01:48;28.70;;;27.94;;
54328;SDS011;40710;51.120;13.136;2022-12-18T12:07:29;30.37;;;29.48;;
54328;SDS011;40710;51.120;13.136;2022-12-18T12:10:13;29.37;;;28.65;;
54328;SDS011;40710;51.120;13.136;2022-12-18T12:13:00;30.60;;;29.56;;
54328;SDS011;40710;51.120;13.136;2022-12-18T12:23:58;28.52;;;27.69;;
54328;SDS011;40710;51.120;13.136;2022-12-18T12:32:20;31.93;;;30.87;;
54328;SDS011;40710;51.120;13.136;2022-12-18T12:40:21;29.93;;;29.03;;
54328;SDS011;40710;51.120;13.136;2022-12-18T12:42:59;29.50;;;28.50;;
54328;SDS011;40710;51.120;13.136;2022-12-18T12:45:39;29.87;;;28.92;;
54328;SDS011;40710;51.120;13.136;2022-12-18T12:48:31;30.54;;;29.56;;
54328;SDS011;40710;51.120;13.136;2022-12-18T12:51:24;29.18;;;27.97;;
54328;SDS011;40710;51.120;13.136;2022-12-18T12:53:52;29.78;;;28.64;;
54328;SDS011;40710;51.120;13.136;2022-12-18T12:56:21;28.92;;;27.89;;
54328;SDS011;40710;51.120;13.136;2022-12-18T12:58:54;29.33;;;28.34;;
54328;SDS011;40710;51.120;13.136;2022-12-18T13:01:42;29.13;;;28.14;;
54328;SDS011;40710;51.120;13.136;2022-12-18T13:07:29;30.12;;;28.94;;
54328;SDS011;40710;51.120;13.136;2022-12-18T13:15:25;28.99;;;27.70;;
54328;SDS011;40710;51.120;13.136;2022-12-18T13:20:36;24.89;;;24.10;;
54328;SDS011;40710;51.120;13.136;2022-12-18T13:25:49;20.78;;;19.83;;
54328;SDS011;40710;51.120;13.136;2022-12-18T13:28:17;18.75;;;18.03;;
54328;SDS011;40710;51.120;13.136;2022-12-18T13:31:07;16.24;;;15.70;;
54328;SDS011;40710;51.120;13.136;2022-12-18T13:33:36;14.85;;;14.32;;
54328;SDS011;40710;51.120;13.136;2022-12-18T13:38:46;14.20;;;13.68;;
54328;SDS011;40710;51.120;13.136;2022-12-18T13:43:42;13.73;;;13.22;;
54328;SDS011;40710;51.120;13.136;2022-12-18T13:48:58;14.84;;;14.24;;
54328;SDS011;40710;51.120;13.136;2022-12-18T13:51:27;13.84;;;13.20;;
54328;SDS011;40710;51.120;13.136;2022-12-18T13:53:57;13.41;;;12.87;;
54328;SDS011;40710;51.120;13.136;2022-12-18T13:56:42;12.90;;;12.40;;
54328;SDS011;40710;51.120;13.136;2022-12-18T13:59:12;13.05;;;12.62;;
54328;SDS011;40710;51.120;13.136;2022-12-18T14:04:21;13.21;;;12.60;;
54328;SDS011;40710;51.120;13.136;2022-12-18T14:06:46;13.76;;;13.15;;
54328;SDS011;40710;51.120;13.136;2022-12-18T14:09:14;14.74;;;13.96;;
54328;SDS011;40710;51.120;13.136;2022-12-18T14:11:46;14.70;;;14.11;;
54328;SDS011;40710;51.120;13.136;2022-12-18T14:14:13;15.10;;;14.27;;
54328;SDS011;40710;51.120;13.136;2022-12-18T14:16:40;14.95;;;14.45;;
54328;SDS011;40710;51.120;13.136;2022-12-18T14:19:05;15.50;;;14.80;;
54328;SDS011;40710;51.120;13.136;2022-12-18T14:21:45;15.60;;;14.80;;
54328;SDS011;40710;51.120;13.136;2022-12-18T14:24:15;15.54;;;14.80;;
54328;SDS011;40710;51.120;13.136;2022-12-18T14:26:43;14.69;;;14.01;;
54328;SDS011;40710;51.120;13.136;2022-12-18T14:29:30;15.20;;;14.44;;
54328;SDS011;40710;51.120;13.136;2022-12-18T14:34:41;15.41;;;14.68;;
54328;SDS011;40710;51.120;13.136;2022-12-18T14:37:06;15.42;;;14.49;;
54328;SDS011;40710;51.120;13.136;2022-12-18T14:39:35;15.81;;;14.97;;
54328;SDS011;40710;51.120;13.136;2022-12-18T14:42:00;17.94;;;17.20;;
54328;SDS011;40710;51.120;13.136;2022-12-18T14:44:24;19.12;;;18.18;;
54328;SDS011;40710;51.120;13.136;2022-12-18T14:46:49;19.84;;;19.10;;
54328;SDS011;40710;51.120;13.136;2022-12-18T14:51:52;26.01;;;24.85;;
54328;SDS011;40710;51.120;13.136;2022-12-18T14:54:23;28.09;;;26.93;;
54328;SDS011;40710;51.120;13.136;2022-12-18T14:57:00;28.66;;;27.53;;
54328;SDS011;40710;51.120;13.136;2022-12-18T14:59:46;31.75;;;29.81;;
54328;SDS011;40710;51.120;13.136;2022-12-18T15:05:03;31.49;;;29.94;;
54328;SDS011;40710;51.120;13.136;2022-12-18T15:12:36;30.44;;;28.53;;
54328;SDS011;40710;51.120;13.136;2022-12-18T15:15:04;29.82;;;28.28;;
54328;SDS011;40710;51.120;13.136;2022-12-18T15:17:29;30.82;;;28.96;;
54328;SDS011;40710;51.120;13.136;2022-12-18T15:20:01;32.05;;;29.97;;
54328;SDS011;40710;51.120;13.136;2022-12-18T15:22:33;32.66;;;30.72;;
54328;SDS011;40710;51.120;13.136;2022-12-18T15:25:00;31.76;;;30.04;;
54328;SDS011;40710;51.120;13.136;2022-12-18T15:32:34;29.96;;;28.40;;
54328;SDS011;40710;51.120;13.136;2022-12-18T15:37:34;30.45;;;28.84;;
54328;SDS011;40710;51.120;13.136;2022-12-18T15:39:58;31.03;;;28.87;;
54328;SDS011;40710;51.120;13.136;2022-12-18T15:42:23;30.11;;;28.25;;
54328;SDS011;40710;51.120;13.136;2022-12-18T15:45:07;29.10;;;27.51;;
54328;SDS011;40710;51.120;13.136;2022-12-18T15:47:36;29.85;;;27.98;;
54328;SDS011;40710;51.120;13.136;2022-12-18T15:50:00;29.58;;;27.94;;
54328;SDS011;40710;51.120;13.136;2022-12-18T15:52:26;28.81;;;27.33;;
54328;SDS011;40710;51.120;13.136;2022-12-18T15:54:51;27.99;;;26.44;;
54328;SDS011;40710;51.120;13.136;2022-12-18T15:57:34;28.32;;;26.41;;
54328;SDS011;40710;51.120;13.136;2022-12-18T15:59:58;28.73;;;26.88;;
54328;SDS011;40710;51.120;13.136;2022-12-18T16:02:23;28.26;;;26.58;;
54328;SDS011;40710;51.120;13.136;2022-12-18T16:04:48;27.91;;;26.57;;
54328;SDS011;40710;51.120;13.136;2022-12-18T16:07:14;28.36;;;27.13;;
54328;SDS011;40710;51.120;13.136;2022-12-18T16:09:39;27.59;;;26.37;;
54328;SDS011;40710;51.120;13.136;2022-12-18T16:12:05;28.38;;;27.03;;
54328;SDS011;40710;51.120;13.136;2022-12-18T16:14:35;28.95;;;27.47;;
54328;SDS011;40710;51.120;13.136;2022-12-18T16:17:03;29.35;;;27.98;;
54328;SDS011;40710;51.120;13.136;2022-12-18T16:19:34;31.73;;;29.81;;
54328;SDS011;40710;51.120;13.136;2022-12-18T16:21:58;31.98;;;30.09;;
54328;SDS011;40710;51.120;13.136;2022-12-18T16:24:30;30.84;;;29.19;;
54328;SDS011;40710;51.120;13.136;2022-12-18T16:26:57;30.97;;;29.78;;
54328;SDS011;40710;51.120;13.136;2022-12-18T16:29:23;30.25;;;28.79;;